sensor_id;sensor_type;location;lat;lon;timestamp;pressure;altitude;pressure_sealevel;temperature;humidity
67545;BME280;54380;47.770;11.150;2023-07-09T00:00:45;95311.09;;;21.75;52.08
67545;BME280;54380;47.770;11.150;2023-07-09T00:03:15;95316.00;;;21.73;51.93
67545;BME280;54380;47.770;11.150;2023-07-09T00:05:42;95308.53;;;21.69;52.02
67545;BME280;54380;47.770;11.150;2023-07-09T00:08:12;95312.97;;;21.65;51.96
67545;BME280;54380;47.770;11.150;2023-07-09T00:10:48;95311.19;;;21.61;52.39
67545;BME280;54380;47.770;11.150;2023-07-09T00:13:15;95321.78;;;21.57;52.40
67545;BME280;54380;47.770;11.150;2023-07-09T00:15:42;95312.44;;;21.55;52.32
67545;BME280;54380;47.770;11.150;2023-07-09T00:18:10;95319.53;;;21.51;52.35
67545;BME280;54380;47.770;11.150;2023-07-09T00:20:38;95317.47;;;21.47;52.41
67545;BME280;54380;47.770;11.150;2023-07-09T00:23:05;95315.88;;;21.46;52.27
67545;BME280;54380;47.770;11.150;2023-07-09T00:25:32;95315.88;;;21.46;52.25
67545;BME280;54380;47.770;11.150;2023-07-09T00:28:03;95324.88;;;21.42;52.36
67545;BME280;54380;47.770;11.150;2023-07-09T00:30:30;95312.84;;;21.39;52.46
67545;BME280;54380;47.770;11.150;2023-07-09T00:32:57;95319.09;;;21.35;52.49
67545;BME280;54380;47.770;11.150;2023-07-09T00:35:24;95319.06;;;21.26;52.67
67545;BME280;54380;47.770;11.150;2023-07-09T00:37:54;95321.50;;;21.14;52.79
67545;BME280;54380;47.770;11.150;2023-07-09T00:40:21;95321.16;;;21.07;53.19
67545;BME280;54380;47.770;11.150;2023-07-09T00:42:52;95321.09;;;20.98;53.23
67545;BME280;54380;47.770;11.150;2023-07-09T00:45:20;95325.66;;;20.97;53.33
67545;BME280;54380;47.770;11.150;2023-07-09T00:47:53;95323.88;;;20.93;53.33
67545;BME280;54380;47.770;11.150;2023-07-09T00:50:24;95328.78;;;20.91;53.39
67545;BME280;54380;47.770;11.150;2023-07-09T00:52:56;95330.47;;;20.87;53.37
67545;BME280;54380;47.770;11.150;2023-07-09T00:55:26;95331.72;;;20.80;53.60
67545;BME280;54380;47.770;11.150;2023-07-09T00:57:57;95332.91;;;20.74;53.76
67545;BME280;54380;47.770;11.150;2023-07-09T01:00:28;95341.06;;;20.69;54.09
67545;BME280;54380;47.770;11.150;2023-07-09T01:02:57;95345.13;;;20.67;54.15
67545;BME280;54380;47.770;11.150;2023-07-09T01:05:25;95346.25;;;20.66;53.98
67545;BME280;54380;47.770;11.150;2023-07-09T01:07:52;95339.31;;;20.65;54.11
67545;BME280;54380;47.770;11.150;2023-07-09T01:10:21;95339.59;;;20.63;54.06
67545;BME280;54380;47.770;11.150;2023-07-09T01:12:48;95343.84;;;20.64;53.90
67545;BME280;54380;47.770;11.150;2023-07-09T01:15:16;95350.22;;;20.68;53.81
67545;BME280;54380;47.770;11.150;2023-07-09T01:17:43;95342.06;;;20.73;53.82
67545;BME280;54380;47.770;11.150;2023-07-09T01:20:16;95350.88;;;20.74;53.61
67545;BME280;54380;47.770;11.150;2023-07-09T01:22:49;95355.19;;;20.75;53.53
67545;BME280;54380;47.770;11.150;2023-07-09T01:25:17;95348.41;;;20.77;53.62
67545;BME280;54380;47.770;11.150;2023-07-09T01:27:44;95344.63;;;20.78;53.34
67545;BME280;54380;47.770;11.150;2023-07-09T01:30:14;95345.41;;;20.79;53.24
67545;BME280;54380;47.770;11.150;2023-07-09T01:32:41;95336.88;;;20.77;53.27
67545;BME280;54380;47.770;11.150;2023-07-09T01:35:13;95350.38;;;20.72;53.07
67545;BME280;54380;47.770;11.150;2023-07-09T01:37:42;95352.22;;;20.63;53.40
67545;BME280;54380;47.770;11.150;2023-07-09T01:40:12;95345.41;;;20.56;53.43
67545;BME280;54380;47.770;11.150;2023-07-09T01:42:56;95340.31;;;20.55;53.57
67545;BME280;54380;47.770;11.150;2023-07-09T01:45:26;95344.66;;;20.51;53.78
67545;BME280;54380;47.770;11.150;2023-07-09T01:47:53;95346.56;;;20.50;53.71
67545;BME280;54380;47.770;11.150;2023-07-09T01:50:20;95344.75;;;20.46;53.78
67545;BME280;54380;47.770;11.150;2023-07-09T01:52:50;95342.50;;;20.39;53.85
67545;BME280;54380;47.770;11.150;2023-07-09T01:55:19;95340.81;;;20.29;53.91
67545;BME280;54380;47.770;11.150;2023-07-09T01:57:46;95340.94;;;20.24;54.20
67545;BME280;54380;47.770;11.150;2023-07-09T02:00:15;95348.50;;;20.22;54.12
67545;BME280;54380;47.770;11.150;2023-07-09T02:02:43;95349.69;;;20.16;54.33
67545;BME280;54380;47.770;11.150;2023-07-09T02:05:10;95342.84;;;20.10;54.37
67545;BME280;54380;47.770;11.150;2023-07-09T02:07:40;95345.91;;;20.03;54.51
67545;BME280;54380;47.770;11.150;2023-07-09T02:10:08;95339.56;;;19.99;54.59
67545;BME280;54380;47.770;11.150;2023-07-09T02:12:36;95343.16;;;19.94;54.83
67545;BME280;54380;47.770;11.150;2023-07-09T02:15:04;95346.72;;;19.90;54.90
67545;BME280;54380;47.770;11.150;2023-07-09T02:17:30;95347.81;;;19.89;55.06
67545;BME280;54380;47.770;11.150;2023-07-09T02:19:57;95348.00;;;19.92;54.82
67545;BME280;54380;47.770;11.150;2023-07-09T02:22:24;95347.13;;;19.97;54.78
67545;BME280;54380;47.770;11.150;2023-07-09T02:24:51;95345.13;;;20.03;54.69
67545;BME280;54380;47.770;11.150;2023-07-09T02:27:19;95346.13;;;20.07;54.48
67545;BME280;54380;47.770;11.150;2023-07-09T02:29:48;95346.59;;;20.09;54.49
67545;BME280;54380;47.770;11.150;2023-07-09T02:32:17;95342.94;;;20.05;54.56
67545;BME280;54380;47.770;11.150;2023-07-09T02:34:45;95354.97;;;19.93;54.62
67545;BME280;54380;47.770;11.150;2023-07-09T02:37:16;95352.97;;;19.85;54.78
67545;BME280;54380;47.770;11.150;2023-07-09T02:39:45;95353.66;;;19.77;55.09
67545;BME280;54380;47.770;11.150;2023-07-09T02:42:16;95361.06;;;19.66;55.17
67545;BME280;54380;47.770;11.150;2023-07-09T02:44:43;95366.69;;;19.51;55.34
67545;BME280;54380;47.770;11.150;2023-07-09T02:47:13;95373.28;;;19.40;55.68
67545;BME280;54380;47.770;11.150;2023-07-09T02:49:40;95366.25;;;19.30;55.80
67545;BME280;54380;47.770;11.150;2023-07-09T02:52:07;95366.91;;;19.22;55.93
67545;BME280;54380;47.770;11.150;2023-07-09T02:54:34;95370.75;;;19.16;56.21
67545;BME280;54380;47.770;11.150;2023-07-09T02:57:01;95374.59;;;19.10;56.44
67545;BME280;54380;47.770;11.150;2023-07-09T02:59:31;95376.25;;;19.05;56.57
67545;BME280;54380;47.770;11.150;2023-07-09T03:01:59;95373.06;;;19.03;56.46
67545;BME280;54380;47.770;11.150;2023-07-09T03:04:28;95374.75;;;18.99;56.68
67545;BME280;54380;47.770;11.150;2023-07-09T03:06:55;95379.59;;;18.97;56.74
67545;BME280;54380;47.770;11.150;2023-07-09T03:09:22;95377.22;;;18.96;56.70
67545;BME280;54380;47.770;11.150;2023-07-09T03:11:48;95370.78;;;18.97;56.80
67545;BME280;54380;47.770;11.150;2023-07-09T03:14:15;95378.81;;;18.97;56.75
67545;BME280;54380;47.770;11.150;2023-07-09T03:16:43;95375.34;;;18.96;57.00
67545;BME280;54380;47.770;11.150;2023-07-09T03:19:09;95376.94;;;18.97;56.77
67545;BME280;54380;47.770;11.150;2023-07-09T03:21:38;95377.94;;;19.01;56.86
67545;BME280;54380;47.770;11.150;2023-07-09T03:24:05;95379.31;;;18.99;56.79
67545;BME280;54380;47.770;11.150;2023-07-09T03:26:32;95387.63;;;18.97;56.80
67545;BME280;54380;47.770;11.150;2023-07-09T03:28:58;95387.13;;;18.95;57.23
67545;BME280;54380;47.770;11.150;2023-07-09T03:31:25;95384.50;;;18.90;57.23
67545;BME280;54380;47.770;11.150;2023-07-09T03:33:54;95386.97;;;18.86;57.46
67545;BME280;54380;47.770;11.150;2023-07-09T03:36:21;95386.47;;;18.84;57.72
67545;BME280;54380;47.770;11.150;2023-07-09T03:38:52;95385.97;;;18.82;57.73
67545;BME280;54380;47.770;11.150;2023-07-09T03:41:19;95391.09;;;18.79;57.83
67545;BME280;54380;47.770;11.150;2023-07-09T03:43:47;95398.16;;;18.70;58.20
67545;BME280;54380;47.770;11.150;2023-07-09T03:46:16;95396.63;;;18.63;58.17
67545;BME280;54380;47.770;11.150;2023-07-09T03:48:43;95392.38;;;18.62;58.31
67545;BME280;54380;47.770;11.150;2023-07-09T03:51:11;95394.03;;;18.58;58.39
67545;BME280;54380;47.770;11.150;2023-07-09T03:53:38;95395.13;;;18.57;58.39
67545;BME280;54380;47.770;11.150;2023-07-09T03:56:06;95392.66;;;18.61;58.15
67545;BME280;54380;47.770;11.150;2023-07-09T03:58:33;95398.78;;;18.61;58.04
67545;BME280;54380;47.770;11.150;2023-07-09T04:01:00;95396.94;;;18.62;58.41
67545;BME280;54380;47.770;11.150;2023-07-09T04:03:26;95396.63;;;18.63;58.11
67545;BME280;54380;47.770;11.150;2023-07-09T04:05:55;95400.59;;;18.66;58.27
67545;BME280;54380;47.770;11.150;2023-07-09T04:08:22;95396.88;;;18.67;58.48
67545;BME280;54380;47.770;11.150;2023-07-09T04:10:49;95394.75;;;18.64;58.65
67545;BME280;54380;47.770;11.150;2023-07-09T04:13:17;95400.66;;;18.61;58.74
67545;BME280;54380;47.770;11.150;2023-07-09T04:15:44;95396.41;;;18.60;58.78
67545;BME280;54380;47.770;11.150;2023-07-09T04:18:11;95400.41;;;18.62;58.53
67545;BME280;54380;47.770;11.150;2023-07-09T04:20:38;95400.53;;;18.71;58.20
67545;BME280;54380;47.770;11.150;2023-07-09T04:23:05;95400.50;;;18.76;58.51
67545;BME280;54380;47.770;11.150;2023-07-09T04:25:32;95396.66;;;18.82;58.54
67545;BME280;54380;47.770;11.150;2023-07-09T04:27:59;95402.75;;;18.88;58.60
67545;BME280;54380;47.770;11.150;2023-07-09T04:30:27;95399.69;;;18.95;58.40
67545;BME280;54380;47.770;11.150;2023-07-09T04:32:54;95402.81;;;19.02;58.34
67545;BME280;54380;47.770;11.150;2023-07-09T04:35:22;95405.63;;;19.11;58.01
67545;BME280;54380;47.770;11.150;2023-07-09T04:37:49;95406.25;;;19.21;57.76
67545;BME280;54380;47.770;11.150;2023-07-09T04:40:16;95406.09;;;19.32;57.33
67545;BME280;54380;47.770;11.150;2023-07-09T04:42:44;95413.16;;;19.41;56.85
67545;BME280;54380;47.770;11.150;2023-07-09T04:45:11;95407.94;;;19.50;56.63
67545;BME280;54380;47.770;11.150;2023-07-09T04:47:40;95413.41;;;19.59;56.51
67545;BME280;54380;47.770;11.150;2023-07-09T04:50:11;95409.78;;;19.68;56.12
67545;BME280;54380;47.770;11.150;2023-07-09T04:52:39;95415.75;;;19.79;55.76
67545;BME280;54380;47.770;11.150;2023-07-09T04:55:06;95403.56;;;19.87;55.68
67545;BME280;54380;47.770;11.150;2023-07-09T04:57:34;95406.34;;;19.95;55.38
67545;BME280;54380;47.770;11.150;2023-07-09T05:00:04;95409.44;;;20.03;54.97
67545;BME280;54380;47.770;11.150;2023-07-09T05:02:37;95403.97;;;20.08;55.04
67545;BME280;54380;47.770;11.150;2023-07-09T05:05:05;95405.97;;;20.16;54.59
67545;BME280;54380;47.770;11.150;2023-07-09T05:07:33;95409.84;;;20.24;54.34
67545;BME280;54380;47.770;11.150;2023-07-09T05:10:00;95409.44;;;20.30;54.09
67545;BME280;54380;47.770;11.150;2023-07-09T05:12:27;95416.00;;;20.38;54.10
67545;BME280;54380;47.770;11.150;2023-07-09T05:14:54;95404.84;;;20.45;53.97
67545;BME280;54380;47.770;11.150;2023-07-09T05:17:21;95409.50;;;20.53;53.55
67545;BME280;54380;47.770;11.150;2023-07-09T05:19:48;95417.97;;;20.60;53.52
67545;BME280;54380;47.770;11.150;2023-07-09T05:22:16;95420.44;;;20.70;53.30
67545;BME280;54380;47.770;11.150;2023-07-09T05:24:43;95419.75;;;20.78;53.10
67545;BME280;54380;47.770;11.150;2023-07-09T05:27:10;95424.66;;;20.85;52.82
67545;BME280;54380;47.770;11.150;2023-07-09T05:29:36;95426.66;;;20.93;52.82
67545;BME280;54380;47.770;11.150;2023-07-09T05:32:03;95419.75;;;21.01;52.50
67545;BME280;54380;47.770;11.150;2023-07-09T05:34:30;95421.75;;;21.09;52.18
67545;BME280;54380;47.770;11.150;2023-07-09T05:36:57;95424.50;;;21.18;52.26
67545;BME280;54380;47.770;11.150;2023-07-09T05:39:28;95425.66;;;21.25;52.01
67545;BME280;54380;47.770;11.150;2023-07-09T05:41:55;95427.13;;;21.32;51.72
67545;BME280;54380;47.770;11.150;2023-07-09T05:44:21;95425.63;;;21.39;51.76
67545;BME280;54380;47.770;11.150;2023-07-09T05:46:48;95425.50;;;21.44;51.39
67545;BME280;54380;47.770;11.150;2023-07-09T05:49:15;95429.63;;;21.51;51.57
67545;BME280;54380;47.770;11.150;2023-07-09T05:51:42;95429.84;;;21.54;51.38
67545;BME280;54380;47.770;11.150;2023-07-09T05:54:08;95421.22;;;21.66;51.33
67545;BME280;54380;47.770;11.150;2023-07-09T05:56:37;95416.38;;;21.77;51.24
67545;BME280;54380;47.770;11.150;2023-07-09T05:59:05;95420.69;;;21.86;51.24
67545;BME280;54380;47.770;11.150;2023-07-09T06:01:35;95421.88;;;22.03;52.31
67545;BME280;54380;47.770;11.150;2023-07-09T06:04:03;95419.28;;;22.20;52.38
67545;BME280;54380;47.770;11.150;2023-07-09T06:06:30;95417.59;;;22.33;52.14
67545;BME280;54380;47.770;11.150;2023-07-09T06:08:57;95418.25;;;22.47;52.19
67545;BME280;54380;47.770;11.150;2023-07-09T06:11:24;95415.44;;;22.61;52.25
67545;BME280;54380;47.770;11.150;2023-07-09T06:13:52;95420.72;;;22.75;52.10
67545;BME280;54380;47.770;11.150;2023-07-09T06:16:19;95419.59;;;22.85;51.86
67545;BME280;54380;47.770;11.150;2023-07-09T06:18:47;95421.19;;;22.94;51.76
67545;BME280;54380;47.770;11.150;2023-07-09T06:21:15;95420.75;;;23.01;51.14
67545;BME280;54380;47.770;11.150;2023-07-09T06:23:42;95422.66;;;23.09;51.29
67545;BME280;54380;47.770;11.150;2023-07-09T06:26:09;95421.88;;;23.17;50.99
67545;BME280;54380;47.770;11.150;2023-07-09T06:28:36;95418.22;;;23.31;51.18
67545;BME280;54380;47.770;11.150;2023-07-09T06:31:06;95412.19;;;23.42;51.05
67545;BME280;54380;47.770;11.150;2023-07-09T06:33:33;95414.53;;;23.53;51.03
67545;BME280;54380;47.770;11.150;2023-07-09T06:36:01;95416.59;;;23.64;50.96
67545;BME280;54380;47.770;11.150;2023-07-09T06:38:28;95414.22;;;23.72;49.99
67545;BME280;54380;47.770;11.150;2023-07-09T06:40:57;95416.09;;;23.80;50.58
67545;BME280;54380;47.770;11.150;2023-07-09T06:43:24;95424.31;;;23.92;50.66
67545;BME280;54380;47.770;11.150;2023-07-09T06:45:51;95410.97;;;24.04;50.39
67545;BME280;54380;47.770;11.150;2023-07-09T06:48:23;95417.56;;;24.16;50.33
67545;BME280;54380;47.770;11.150;2023-07-09T06:50:51;95418.78;;;24.27;49.99
67545;BME280;54380;47.770;11.150;2023-07-09T06:53:18;95418.56;;;24.41;50.30
67545;BME280;54380;47.770;11.150;2023-07-09T06:55:51;95416.94;;;24.57;50.08
67545;BME280;54380;47.770;11.150;2023-07-09T06:58:22;95421.44;;;24.74;50.04
67545;BME280;54380;47.770;11.150;2023-07-09T07:00:52;95415.00;;;24.87;49.66
67545;BME280;54380;47.770;11.150;2023-07-09T07:03:20;95413.28;;;25.04;49.38
67545;BME280;54380;47.770;11.150;2023-07-09T07:05:48;95413.97;;;25.22;49.56
67545;BME280;54380;47.770;11.150;2023-07-09T07:08:18;95420.34;;;25.38;48.72
67545;BME280;54380;47.770;11.150;2023-07-09T07:10:47;95410.72;;;25.49;48.35
67545;BME280;54380;47.770;11.150;2023-07-09T07:13:14;95413.13;;;25.63;47.91
67545;BME280;54380;47.770;11.150;2023-07-09T07:15:47;95416.97;;;25.74;47.31
67545;BME280;54380;47.770;11.150;2023-07-09T07:18:14;95418.97;;;25.86;46.62
67545;BME280;54380;47.770;11.150;2023-07-09T07:20:42;95417.41;;;25.97;46.19
67545;BME280;54380;47.770;11.150;2023-07-09T07:23:09;95420.78;;;26.06;45.73
67545;BME280;54380;47.770;11.150;2023-07-09T07:25:39;95417.66;;;26.17;45.75
67545;BME280;54380;47.770;11.150;2023-07-09T07:28:09;95415.28;;;26.27;45.34
67545;BME280;54380;47.770;11.150;2023-07-09T07:30:37;95414.97;;;26.41;45.46
67545;BME280;54380;47.770;11.150;2023-07-09T07:33:04;95417.81;;;26.57;45.29
67545;BME280;54380;47.770;11.150;2023-07-09T07:35:39;95413.28;;;26.74;44.83
67545;BME280;54380;47.770;11.150;2023-07-09T07:38:31;95412.91;;;26.87;44.92
67545;BME280;54380;47.770;11.150;2023-07-09T07:40:58;95410.19;;;27.00;44.46
67545;BME280;54380;47.770;11.150;2023-07-09T07:43:25;95402.00;;;27.12;44.25
67545;BME280;54380;47.770;11.150;2023-07-09T07:45:52;95403.47;;;27.22;44.52
67545;BME280;54380;47.770;11.150;2023-07-09T07:48:19;95400.59;;;27.43;44.37
67545;BME280;54380;47.770;11.150;2023-07-09T07:50:46;95403.88;;;27.64;41.89
67545;BME280;54380;47.770;11.150;2023-07-09T07:53:14;95397.50;;;27.72;41.83
67545;BME280;54380;47.770;11.150;2023-07-09T07:55:43;95395.53;;;27.85;42.05
67545;BME280;54380;47.770;11.150;2023-07-09T07:58:13;95396.00;;;28.03;42.05
67545;BME280;54380;47.770;11.150;2023-07-09T08:00:40;95395.47;;;28.13;40.22
67545;BME280;54380;47.770;11.150;2023-07-09T08:03:11;95396.50;;;28.24;40.60
67545;BME280;54380;47.770;11.150;2023-07-09T08:05:38;95394.94;;;28.39;40.65
67545;BME280;54380;47.770;11.150;2023-07-09T08:08:10;95390.81;;;28.61;38.83
67545;BME280;54380;47.770;11.150;2023-07-09T08:10:39;95381.78;;;28.73;38.98
67545;BME280;54380;47.770;11.150;2023-07-09T08:13:22;95382.06;;;28.87;40.04
67545;BME280;54380;47.770;11.150;2023-07-09T08:15:50;95380.09;;;29.04;37.94
67545;BME280;54380;47.770;11.150;2023-07-09T08:18:17;95384.13;;;29.10;37.44
67545;BME280;54380;47.770;11.150;2023-07-09T08:21:00;95369.97;;;29.20;36.66
67545;BME280;54380;47.770;11.150;2023-07-09T08:23:41;95372.81;;;29.27;35.87
67545;BME280;54380;47.770;11.150;2023-07-09T08:26:10;95367.81;;;29.29;36.17
67545;BME280;54380;47.770;11.150;2023-07-09T08:34:52;95364.38;;;29.52;34.72
67545;BME280;54380;47.770;11.150;2023-07-09T08:37:38;95359.22;;;29.66;34.97
67545;BME280;54380;47.770;11.150;2023-07-09T08:40:19;95356.75;;;29.81;34.27
67545;BME280;54380;47.770;11.150;2023-07-09T08:43:06;95358.84;;;29.91;33.99
67545;BME280;54380;47.770;11.150;2023-07-09T08:45:40;95361.75;;;30.02;34.15
67545;BME280;54380;47.770;11.150;2023-07-09T08:48:15;95353.28;;;30.07;32.97
67545;BME280;54380;47.770;11.150;2023-07-09T08:50:58;95357.59;;;30.08;33.97
67545;BME280;54380;47.770;11.150;2023-07-09T08:53:28;95360.06;;;30.16;33.97
67545;BME280;54380;47.770;11.150;2023-07-09T08:55:58;95359.13;;;30.28;33.83
67545;BME280;54380;47.770;11.150;2023-07-09T08:58:26;95359.75;;;30.45;33.04
67545;BME280;54380;47.770;11.150;2023-07-09T09:00:55;95358.31;;;30.54;33.79
67545;BME280;54380;47.770;11.150;2023-07-09T09:03:27;95358.22;;;30.74;33.70
67545;BME280;54380;47.770;11.150;2023-07-09T09:05:57;95365.47;;;30.89;32.31
67545;BME280;54380;47.770;11.150;2023-07-09T09:08:38;95362.81;;;30.96;32.87
67545;BME280;54380;47.770;11.150;2023-07-09T09:11:31;95360.59;;;31.02;32.16
67545;BME280;54380;47.770;11.150;2023-07-09T09:15:16;95363.03;;;31.11;31.79
67545;BME280;54380;47.770;11.150;2023-07-09T09:17:45;95357.25;;;31.16;30.94
67545;BME280;54380;47.770;11.150;2023-07-09T09:20:16;95357.28;;;31.19;31.12
67545;BME280;54380;47.770;11.150;2023-07-09T09:22:48;95364.00;;;31.29;31.66
67545;BME280;54380;47.770;11.150;2023-07-09T09:25:20;95361.13;;;31.48;31.27
67545;BME280;54380;47.770;11.150;2023-07-09T09:27:59;95358.59;;;31.66;30.90
67545;BME280;54380;47.770;11.150;2023-07-09T09:30:26;95350.50;;;31.74;31.03
67545;BME280;54380;47.770;11.150;2023-07-09T09:32:56;95353.72;;;31.86;31.97
67545;BME280;54380;47.770;11.150;2023-07-09T09:35:28;95346.94;;;32.10;31.13
67545;BME280;54380;47.770;11.150;2023-07-09T09:37:57;95350.53;;;32.22;29.55
67545;BME280;54380;47.770;11.150;2023-07-09T09:40:26;95346.28;;;32.24;30.17
67545;BME280;54380;47.770;11.150;2023-07-09T09:42:55;95347.91;;;32.36;31.08
67545;BME280;54380;47.770;11.150;2023-07-09T09:45:26;95343.63;;;32.39;30.36
67545;BME280;54380;47.770;11.150;2023-07-09T09:47:58;95345.59;;;32.38;29.30
67545;BME280;54380;47.770;11.150;2023-07-09T09:50:32;95351.09;;;32.42;29.26
67545;BME280;54380;47.770;11.150;2023-07-09T09:53:02;95345.22;;;32.43;28.87
67545;BME280;54380;47.770;11.150;2023-07-09T09:55:35;95341.09;;;32.60;30.48
67545;BME280;54380;47.770;11.150;2023-07-09T09:58:02;95348.53;;;32.67;31.34
67545;BME280;54380;47.770;11.150;2023-07-09T10:00:29;95339.97;;;32.75;31.45
67545;BME280;54380;47.770;11.150;2023-07-09T10:03:03;95347.50;;;32.89;31.08
67545;BME280;54380;47.770;11.150;2023-07-09T10:05:34;95351.91;;;33.12;30.87
67545;BME280;54380;47.770;11.150;2023-07-09T10:08:07;95348.44;;;33.26;30.71
67545;BME280;54380;47.770;11.150;2023-07-09T10:10:36;95348.84;;;33.28;30.90
67545;BME280;54380;47.770;11.150;2023-07-09T10:13:09;95351.94;;;33.22;31.37
67545;BME280;54380;47.770;11.150;2023-07-09T10:15:39;95355.09;;;33.25;30.91
67545;BME280;54380;47.770;11.150;2023-07-09T10:18:12;95352.78;;;33.37;29.17
67545;BME280;54380;47.770;11.150;2023-07-09T10:20:55;95356.00;;;33.57;28.83
67545;BME280;54380;47.770;11.150;2023-07-09T10:23:47;95352.91;;;33.73;29.80
67545;BME280;54380;47.770;11.150;2023-07-09T10:26:23;95357.22;;;33.78;30.38
67545;BME280;54380;47.770;11.150;2023-07-09T10:29:04;95354.09;;;33.83;30.54
67545;BME280;54380;47.770;11.150;2023-07-09T10:31:44;95354.88;;;33.83;30.35
67545;BME280;54380;47.770;11.150;2023-07-09T10:34:17;95349.44;;;33.94;30.35
67545;BME280;54380;47.770;11.150;2023-07-09T10:37:06;95350.19;;;34.02;30.41
67545;BME280;54380;47.770;11.150;2023-07-09T10:39:54;95348.28;;;34.06;30.11
67545;BME280;54380;47.770;11.150;2023-07-09T10:42:30;95345.16;;;34.11;29.37
67545;BME280;54380;47.770;11.150;2023-07-09T10:45:08;95339.28;;;34.20;28.47
67545;BME280;54380;47.770;11.150;2023-07-09T10:47:45;95345.53;;;34.42;28.05
67545;BME280;54380;47.770;11.150;2023-07-09T10:50:17;95345.50;;;34.56;29.09
67545;BME280;54380;47.770;11.150;2023-07-09T10:52:49;95341.19;;;34.62;28.93
67545;BME280;54380;47.770;11.150;2023-07-09T11:01:26;95336.91;;;34.36;27.05
67545;BME280;54380;47.770;11.150;2023-07-09T11:04:10;95336.88;;;34.54;26.59
67545;BME280;54380;47.770;11.150;2023-07-09T11:06:54;95337.66;;;34.76;26.90
67545;BME280;54380;47.770;11.150;2023-07-09T11:09:32;95331.75;;;34.85;27.15
67545;BME280;54380;47.770;11.150;2023-07-09T11:12:10;95321.91;;;35.02;27.23
67545;BME280;54380;47.770;11.150;2023-07-09T11:14:48;95318.38;;;35.15;23.45
67545;BME280;54380;47.770;11.150;2023-07-09T11:23:37;95311.22;;;35.32;24.05
67545;BME280;54380;47.770;11.150;2023-07-09T11:26:10;95310.00;;;35.40;25.26
67545;BME280;54380;47.770;11.150;2023-07-09T11:28:40;95296.97;;;35.55;25.82
67545;BME280;54380;47.770;11.150;2023-07-09T11:31:07;95309.16;;;35.51;26.19
67545;BME280;54380;47.770;11.150;2023-07-09T11:33:44;95299.81;;;35.37;27.35
67545;BME280;54380;47.770;11.150;2023-07-09T11:36:25;95301.78;;;35.37;26.89
67545;BME280;54380;47.770;11.150;2023-07-09T11:55:59;95271.84;;;36.16;26.09
67545;BME280;54380;47.770;11.150;2023-07-09T11:58:31;95271.56;;;36.00;26.64
67545;BME280;54380;47.770;11.150;2023-07-09T12:01:00;95272.00;;;35.95;26.03
67545;BME280;54380;47.770;11.150;2023-07-09T12:03:29;95258.66;;;35.93;27.24
67545;BME280;54380;47.770;11.150;2023-07-09T12:06:15;95260.16;;;36.01;25.62
67545;BME280;54380;47.770;11.150;2023-07-09T12:08:56;95259.38;;;36.01;21.66
67545;BME280;54380;47.770;11.150;2023-07-09T12:11:29;95265.75;;;35.91;22.37
67545;BME280;54380;47.770;11.150;2023-07-09T12:14:00;95264.63;;;35.81;21.53
67545;BME280;54380;47.770;11.150;2023-07-09T12:16:33;95259.19;;;35.77;21.66
67545;BME280;54380;47.770;11.150;2023-07-09T12:19:04;95252.13;;;35.76;20.91
67545;BME280;54380;47.770;11.150;2023-07-09T12:21:34;95259.22;;;35.74;21.61
67545;BME280;54380;47.770;11.150;2023-07-09T12:24:03;95264.75;;;35.67;21.05
67545;BME280;54380;47.770;11.150;2023-07-09T12:29:25;95257.13;;;35.89;22.41
67545;BME280;54380;47.770;11.150;2023-07-09T12:31:52;95243.34;;;35.96;22.57
67545;BME280;54380;47.770;11.150;2023-07-09T12:34:23;95239.72;;;36.06;21.59
67545;BME280;54380;47.770;11.150;2023-07-09T12:36:52;95243.66;;;36.05;22.19
67545;BME280;54380;47.770;11.150;2023-07-09T12:39:21;95234.69;;;35.97;22.76
67545;BME280;54380;47.770;11.150;2023-07-09T12:41:54;95232.66;;;36.05;22.96
67545;BME280;54380;47.770;11.150;2023-07-09T12:44:22;95233.84;;;36.08;22.19
67545;BME280;54380;47.770;11.150;2023-07-09T12:46:51;95229.47;;;36.14;21.39
67545;BME280;54380;47.770;11.150;2023-07-09T12:49:23;95216.56;;;36.03;21.76
67545;BME280;54380;47.770;11.150;2023-07-09T12:52:08;95219.31;;;36.03;22.73
67545;BME280;54380;47.770;11.150;2023-07-09T12:54:36;95216.88;;;36.16;25.11
67545;BME280;54380;47.770;11.150;2023-07-09T12:57:17;95217.31;;;36.11;26.65
67545;BME280;54380;47.770;11.150;2023-07-09T12:59:48;95209.88;;;36.04;25.61
67545;BME280;54380;47.770;11.150;2023-07-09T13:02:37;95213.44;;;36.05;25.09
67545;BME280;54380;47.770;11.150;2023-07-09T13:05:06;95211.06;;;36.11;22.35
67545;BME280;54380;47.770;11.150;2023-07-09T13:07:34;95216.56;;;36.07;22.21
67545;BME280;54380;47.770;11.150;2023-07-09T13:10:04;95219.69;;;36.05;21.41
67545;BME280;54380;47.770;11.150;2023-07-09T13:12:33;95216.63;;;35.96;21.74
67545;BME280;54380;47.770;11.150;2023-07-09T13:15:02;95210.41;;;35.92;23.88
67545;BME280;54380;47.770;11.150;2023-07-09T13:20:33;95215.66;;;35.76;27.38
67545;BME280;54380;47.770;11.150;2023-07-09T13:23:11;95210.97;;;35.73;25.62
67545;BME280;54380;47.770;11.150;2023-07-09T13:25:38;95208.97;;;35.77;26.32
67545;BME280;54380;47.770;11.150;2023-07-09T13:28:21;95207.88;;;35.71;26.83
67545;BME280;54380;47.770;11.150;2023-07-09T13:30:50;95212.97;;;35.65;26.74
67545;BME280;54380;47.770;11.150;2023-07-09T13:33:31;95215.38;;;35.59;25.87
67545;BME280;54380;47.770;11.150;2023-07-09T13:42:00;95220.56;;;35.43;27.17
67545;BME280;54380;47.770;11.150;2023-07-09T13:44:40;95214.34;;;35.35;27.92
67545;BME280;54380;47.770;11.150;2023-07-09T13:47:21;95222.66;;;35.25;28.51
67545;BME280;54380;47.770;11.150;2023-07-09T13:50:02;95216.84;;;35.12;27.43
67545;BME280;54380;47.770;11.150;2023-07-09T13:52:44;95218.06;;;35.11;27.80
67545;BME280;54380;47.770;11.150;2023-07-09T13:55:27;95215.69;;;35.13;27.02